Time;durP1;ratioP1;P1;durP2;ratioP2;P2;SDS_P1;SDS_P2;PMS_P1;PMS_P2;Temp;Humidity;BMP_temperature;BMP_pressure;BME280_temperature;BME280_humidity;BME280_pressure;Samples;Min_cycle;Max_cycle;Signal;HPM_P1;HPM_P2
2021/08/15 00:00:34;;;;;;;6.85;4.43;;;16.40;99.90;;;;;;5003634;28;20499;-83
2021/08/15 00:03:00;;;;;;;8.75;4.70;;;16.50;99.90;;;;;;5016190;28;20033;-83
2021/08/15 00:05:26;;;;;;;8.43;4.97;;;16.30;99.90;;;;;;5024483;28;20048;-83
2021/08/15 00:07:53;;;;;;;7.78;4.53;;;16.30;99.90;;;;;;5016396;28;20049;-83
2021/08/15 00:10:20;;;;;;;6.97;4.38;;;16.30;99.90;;;;;;5017700;28;20459;-83
2021/08/15 00:12:45;;;;;;;6.90;4.10;;;16.20;99.90;;;;;;5019588;28;20029;-83
2021/08/15 00:15:13;;;;;;;7.38;4.45;;;16.30;99.90;;;;;;5019871;28;20036;-83
2021/08/15 00:17:40;;;;;;;5.90;3.92;;;16.20;99.90;;;;;;5036332;28;20095;-83
2021/08/15 00:20:08;;;;;;;6.93;4.00;;;16.20;99.90;;;;;;5025223;28;20037;-82
2021/08/15 00:22:39;;;;;;;4.93;3.78;;;16.20;99.90;;;;;;5018072;28;20105;-82
2021/08/15 00:25:07;;;;;;;4.75;3.80;;;16.10;99.90;;;;;;5003717;28;20541;-82
2021/08/15 00:27:33;;;;;;;6.25;3.80;;;16.00;99.90;;;;;;5032352;28;20021;-82
2021/08/15 00:29:59;;;;;;;8.18;3.72;;;16.00;99.90;;;;;;5018220;28;20424;-83
2021/08/15 00:32:25;;;;;;;6.10;4.28;;;16.00;99.90;;;;;;5018109;28;20076;-82
2021/08/15 00:34:51;;;;;;;5.88;3.92;;;16.10;99.90;;;;;;5019410;28;20467;-84
2021/08/15 00:37:16;;;;;;;6.20;3.80;;;16.00;99.90;;;;;;5025149;28;20086;-84
2021/08/15 00:39:42;;;;;;;5.90;4.03;;;16.00;99.90;;;;;;5013543;28;20044;-82
2021/08/15 00:42:08;;;;;;;7.60;4.55;;;16.00;99.90;;;;;;5024899;28;20557;-84
2021/08/15 00:44:34;;;;;;;6.28;3.83;;;16.00;99.90;;;;;;5036272;28;20495;-84
2021/08/15 00:47:00;;;;;;;6.47;4.60;;;16.00;99.90;;;;;;5015939;28;20064;-86
2021/08/15 00:49:26;;;;;;;5.15;3.70;;;16.00;99.90;;;;;;5016472;28;20030;-84
2021/08/15 00:51:52;;;;;;;6.75;4.43;;;16.00;99.90;;;;;;5055716;28;20114;-85
2021/08/15 00:54:19;;;;;;;9.25;4.20;;;16.00;99.90;;;;;;5056090;28;20032;-87
2021/08/15 00:56:54;;;;;;;8.88;5.15;;;16.00;99.90;;;;;;5035542;28;20066;-84
2021/08/15 00:59:21;;;;;;;8.02;5.10;;;15.90;99.90;;;;;;5016540;28;20045;-85
2021/08/15 01:01:53;;;;;;;7.25;4.82;;;15.90;99.90;;;;;;4997197;28;20034;-84
2021/08/15 01:04:20;;;;;;;9.18;4.95;;;15.90;99.90;;;;;;5016655;28;20145;-84
2021/08/15 01:06:48;;;;;;;7.38;4.90;;;15.90;99.90;;;;;;4992206;28;20514;-85
2021/08/15 01:09:14;;;;;;;8.77;4.82;;;15.90;99.90;;;;;;4984881;28;20033;-84
2021/08/15 01:11:40;;;;;;;6.28;4.82;;;15.90;99.90;;;;;;5041183;28;20052;-85
2021/08/15 01:14:07;;;;;;;6.55;4.88;;;15.80;99.90;;;;;;5055029;28;20029;-85
2021/08/15 01:16:44;;;;;;;8.15;5.78;;;15.80;99.90;;;;;;5072049;28;20036;-85
2021/08/15 01:19:11;;;;;;;6.50;4.43;;;15.80;99.90;;;;;;5017866;28;20064;-85
2021/08/15 01:21:46;;;;;;;7.70;5.07;;;15.70;99.90;;;;;;4994862;28;20044;-85
2021/08/15 01:24:13;;;;;;;7.38;5.20;;;15.70;99.90;;;;;;5016580;28;20053;-85
2021/08/15 01:26:40;;;;;;;7.80;5.10;;;15.70;99.90;;;;;;5024937;28;20029;-85
2021/08/15 01:29:06;;;;;;;6.78;5.25;;;15.60;99.90;;;;;;5017995;28;20029;-85
2021/08/15 01:31:32;;;;;;;6.38;4.55;;;15.60;99.90;;;;;;5038394;28;20036;-85
2021/08/15 01:33:57;;;;;;;7.18;4.53;;;15.60;99.90;;;;;;5018501;28;20053;-85
2021/08/15 01:36:23;;;;;;;8.88;4.80;;;15.50;99.90;;;;;;5002237;28;20454;-85
2021/08/15 01:38:50;;;;;;;6.22;4.47;;;15.60;99.90;;;;;;5017899;28;20029;-85
2021/08/15 01:41:16;;;;;;;8.07;4.88;;;15.60;99.90;;;;;;5046584;28;20395;-84
2021/08/15 01:43:57;;;;;;;7.22;5.13;;;15.50;99.90;;;;;;5014515;28;20038;-85
2021/08/15 01:46:25;;;;;;;4.65;3.88;;;15.50;99.90;;;;;;5031073;28;20056;-85
2021/08/15 01:48:51;;;;;;;6.70;5.03;;;15.40;99.90;;;;;;5014673;28;20037;-85
2021/08/15 01:51:18;;;;;;;6.95;4.47;;;15.40;99.90;;;;;;5031156;28;20511;-85
2021/08/15 01:53:45;;;;;;;8.38;4.63;;;15.30;99.90;;;;;;4998283;28;20037;-85
2021/08/15 01:56:11;;;;;;;5.82;4.20;;;15.30;99.90;;;;;;4998695;28;20119;-85
2021/08/15 01:58:37;;;;;;;6.90;4.47;;;15.30;99.90;;;;;;4998610;28;20041;-85
2021/08/15 02:01:03;;;;;;;6.53;4.13;;;15.30;99.90;;;;;;5014668;28;20037;-85
2021/08/15 02:03:29;;;;;;;6.78;4.30;;;15.30;99.90;;;;;;5050613;28;20052;-85
2021/08/15 02:05:55;;;;;;;5.40;4.00;;;15.30;99.90;;;;;;5001315;28;20527;-84
2021/08/15 02:08:21;;;;;;;5.90;4.47;;;15.30;99.90;;;;;;5017976;28;20475;-85
2021/08/15 02:10:46;;;;;;;7.80;4.35;;;15.30;99.90;;;;;;5013845;28;20037;-85
2021/08/15 02:13:12;;;;;;;5.53;4.10;;;15.30;99.90;;;;;;5014075;28;20030;-85
2021/08/15 02:15:38;;;;;;;6.63;4.68;;;15.30;99.90;;;;;;5021253;28;20465;-85
2021/08/15 02:18:04;;;;;;;6.53;3.97;;;15.30;99.90;;;;;;5033706;28;20495;-85
2021/08/15 02:20:31;;;;;;;9.88;4.25;;;15.20;99.90;;;;;;5033304;28;20040;-85
2021/08/15 02:22:57;;;;;;;6.80;3.97;;;15.20;99.90;;;;;;5017324;28;20083;-85
2021/08/15 02:25:24;;;;;;;9.73;4.80;;;15.20;99.90;;;;;;5017940;28;20060;-85
2021/08/15 02:27:50;;;;;;;8.38;4.53;;;15.10;99.90;;;;;;5014351;28;20427;-85
2021/08/15 02:30:17;;;;;;;5.68;3.75;;;15.10;99.90;;;;;;5035342;28;20032;-85
2021/08/15 02:32:44;;;;;;;6.10;4.50;;;15.10;99.90;;;;;;5029992;28;20045;-85
2021/08/15 02:35:11;;;;;;;5.97;4.03;;;15.10;99.90;;;;;;5031799;28;20037;-85
2021/08/15 02:37:37;;;;;;;4.97;4.07;;;15.10;99.90;;;;;;5014353;28;20045;-85
2021/08/15 02:40:06;;;;;;;5.60;4.38;;;15.10;99.90;;;;;;5017024;28;20020;-85
2021/08/15 02:42:34;;;;;;;5.25;3.95;;;15.10;99.90;;;;;;5016597;28;20502;-84
2021/08/15 02:45:00;;;;;;;9.63;4.50;;;15.00;99.90;;;;;;4981358;28;20041;-85
2021/08/15 02:47:26;;;;;;;5.72;4.20;;;15.00;99.90;;;;;;5022272;28;20416;-85
2021/08/15 02:49:52;;;;;;;6.32;4.03;;;15.00;99.90;;;;;;4984656;28;20680;-84
2021/08/15 02:52:18;;;;;;;5.90;4.30;;;15.00;99.90;;;;;;5016356;28;20033;-85
2021/08/15 02:54:44;;;;;;;7.07;4.45;;;15.00;99.90;;;;;;5016956;28;20041;-86
2021/08/15 02:57:10;;;;;;;6.55;4.05;;;14.90;99.90;;;;;;5000506;28;20090;-84
2021/08/15 02:59:41;;;;;;;6.90;4.10;;;14.90;99.90;;;;;;4999923;28;20037;-85
2021/08/15 03:02:09;;;;;;;5.90;4.35;;;14.90;99.90;;;;;;4985608;28;20510;-84
2021/08/15 03:04:35;;;;;;;6.35;4.05;;;14.80;99.90;;;;;;5013404;28;20076;-84
2021/08/15 03:07:01;;;;;;;5.97;3.72;;;14.80;99.90;;;;;;5013429;28;20037;-84
2021/08/15 03:09:27;;;;;;;6.55;4.22;;;14.80;99.90;;;;;;5026379;28;20036;-84
2021/08/15 03:11:52;;;;;;;7.78;4.32;;;14.70;99.90;;;;;;4996671;28;20026;-84
2021/08/15 03:14:18;;;;;;;6.50;3.70;;;14.70;99.90;;;;;;5016427;28;20531;-84
2021/08/15 03:16:44;;;;;;;5.60;4.05;;;14.70;99.90;;;;;;5017747;28;20054;-85
2021/08/15 03:19:09;;;;;;;4.97;3.92;;;14.70;99.90;;;;;;5016426;28;20044;-84
2021/08/15 03:21:35;;;;;;;5.68;3.78;;;14.60;99.90;;;;;;5016288;28;20383;-83
2021/08/15 03:24:02;;;;;;;7.35;3.92;;;14.60;99.90;;;;;;5033038;28;20511;-85
2021/08/15 03:26:28;;;;;;;4.70;3.85;;;14.60;99.90;;;;;;5029698;28;20060;-83
2021/08/15 03:28:53;;;;;;;6.53;4.13;;;14.60;99.90;;;;;;4999627;28;20106;-84
2021/08/15 03:31:19;;;;;;;5.93;4.15;;;14.50;99.90;;;;;;5018406;28;20546;-83
2021/08/15 03:33:45;;;;;;;5.10;3.83;;;14.40;99.90;;;;;;5026634;28;20079;-84
2021/08/15 03:36:11;;;;;;;5.65;4.03;;;14.40;99.90;;;;;;5036689;28;20037;-84
2021/08/15 03:38:36;;;;;;;7.15;4.18;;;14.40;99.90;;;;;;5036834;28;20037;-84
2021/08/15 03:41:03;;;;;;;6.90;4.22;;;14.40;99.90;;;;;;5019455;28;20031;-85
2021/08/15 03:43:29;;;;;;;6.55;4.05;;;14.40;99.90;;;;;;5019343;28;20060;-84
2021/08/15 03:45:55;;;;;;;7.93;4.47;;;14.30;99.90;;;;;;5020032;28;20072;-84
2021/08/15 03:48:21;;;;;;;7.72;4.85;;;14.30;99.90;;;;;;5001111;28;20116;-84
2021/08/15 03:50:46;;;;;;;5.65;4.10;;;14.30;99.90;;;;;;5038859;28;20025;-85
2021/08/15 03:53:12;;;;;;;5.03;3.80;;;14.20;99.90;;;;;;5035667;28;20047;-84
2021/08/15 03:55:38;;;;;;;6.70;4.10;;;14.20;99.90;;;;;;5020086;28;20053;-84
2021/08/15 03:58:05;;;;;;;6.38;4.30;;;14.20;99.90;;;;;;5003499;28;20040;-83
2021/08/15 04:00:32;;;;;;;5.25;4.35;;;14.20;99.90;;;;;;5003335;28;20048;-85
2021/08/15 04:02:57;;;;;;;5.28;3.85;;;14.20;99.90;;;;;;5019416;28;20040;-83
2021/08/15 04:05:23;;;;;;;7.47;4.65;;;14.20;99.90;;;;;;5019270;28;20041;-84
2021/08/15 04:07:49;;;;;;;7.22;4.60;;;14.10;99.90;;;;;;5019838;28;20449;-84
2021/08/15 04:10:16;;;;;;;5.80;4.22;;;14.10;99.90;;;;;;5000021;28;20475;-84
2021/08/15 04:12:41;;;;;;;6.85;4.40;;;14.10;99.90;;;;;;5002698;28;20120;-84
2021/08/15 04:15:08;;;;;;;5.55;4.38;;;14.10;99.90;;;;;;5019556;28;20067;-84
2021/08/15 04:17:34;;;;;;;6.18;4.40;;;14.10;99.90;;;;;;5019331;28;20028;-84
2021/08/15 04:20:00;;;;;;;6.10;4.25;;;14.10;99.90;;;;;;4986556;28;20029;-84
2021/08/15 04:22:25;;;;;;;5.55;4.03;;;14.10;99.90;;;;;;4999569;28;20534;-84
2021/08/15 04:24:51;;;;;;;7.57;4.38;;;14.00;99.90;;;;;;5002971;28;20399;-84
2021/08/15 04:27:17;;;;;;;7.43;4.47;;;14.00;99.90;;;;;;5053514;28;20041;-82
2021/08/15 04:29:42;;;;;;;6.00;4.05;;;14.00;99.90;;;;;;5018499;28;20040;-83
2021/08/15 04:32:08;;;;;;;5.75;3.75;;;14.00;99.90;;;;;;4999041;28;20539;-82
2021/08/15 04:34:34;;;;;;;5.78;4.15;;;14.00;99.90;;;;;;5015996;28;20048;-84
2021/08/15 04:37:01;;;;;;;5.82;3.80;;;14.00;99.90;;;;;;5032167;28;20048;-84
2021/08/15 04:39:27;;;;;;;5.95;4.18;;;14.00;99.90;;;;;;5031613;28;20034;-82
2021/08/15 04:41:53;;;;;;;4.18;3.22;;;14.00;99.90;;;;;;4998356;28;20033;-82
2021/08/15 04:44:19;;;;;;;5.75;3.97;;;14.00;99.90;;;;;;5015750;28;20112;-84
2021/08/15 04:46:44;;;;;;;4.60;3.80;;;14.00;99.90;;;;;;4999079;28;20025;-83
2021/08/15 04:49:10;;;;;;;5.10;3.67;;;14.10;99.90;;;;;;5031769;28;20026;-84
2021/08/15 04:51:36;;;;;;;6.82;3.92;;;14.10;99.90;;;;;;4998606;28;20079;-84
2021/08/15 04:54:01;;;;;;;7.57;4.40;;;14.00;99.90;;;;;;5035083;28;20124;-83
2021/08/15 04:56:27;;;;;;;7.40;3.70;;;14.10;99.90;;;;;;4999348;28;20116;-83
2021/08/15 04:58:53;;;;;;;6.28;4.72;;;14.10;99.90;;;;;;5014800;28;20484;-84
2021/08/15 05:01:18;;;;;;;6.47;4.32;;;14.10;99.90;;;;;;4985060;28;20033;-84
2021/08/15 05:03:44;;;;;;;6.10;4.00;;;14.10;99.90;;;;;;4985558;28;20040;-82
2021/08/15 05:06:10;;;;;;;5.60;4.32;;;14.10;99.90;;;;;;5018276;28;20093;-83
2021/08/15 05:08:35;;;;;;;6.13;4.60;;;14.20;99.90;;;;;;5018547;28;20472;-83
2021/08/15 05:11:01;;;;;;;6.05;4.13;;;14.20;99.90;;;;;;5001564;28;20178;-83
2021/08/15 05:13:28;;;;;;;6.47;4.18;;;14.20;99.90;;;;;;5004359;28;20040;-84
2021/08/15 05:15:55;;;;;;;6.13;4.32;;;14.30;99.90;;;;;;5000341;28;20040;-83
2021/08/15 05:18:20;;;;;;;6.15;4.20;;;14.30;99.90;;;;;;5018452;28;20033;-83
2021/08/15 05:20:46;;;;;;;5.80;4.43;;;14.40;99.90;;;;;;5033991;28;20095;-83
2021/08/15 05:23:13;;;;;;;6.55;4.07;;;14.40;99.90;;;;;;5016882;28;20132;-83
2021/08/15 05:25:39;;;;;;;5.63;4.15;;;14.50;99.90;;;;;;5030755;28;20037;-82
2021/08/15 05:28:05;;;;;;;10.23;4.22;;;14.50;99.90;;;;;;5036186;28;20060;-85
2021/08/15 05:30:32;;;;;;;5.75;4.30;;;14.60;99.90;;;;;;5031550;28;20061;-83
2021/08/15 05:32:58;;;;;;;6.13;4.38;;;14.70;99.90;;;;;;4998959;28;20409;-85
2021/08/15 05:35:24;;;;;;;6.25;4.55;;;14.70;99.90;;;;;;5034327;28;20535;-83
2021/08/15 05:37:50;;;;;;;8.75;6.30;;;14.80;99.90;;;;;;5036862;28;20120;-84
2021/08/15 05:40:17;;;;;;;10.32;7.28;;;14.90;99.90;;;;;;5019495;28;20033;-82
2021/08/15 05:42:42;;;;;;;15.88;9.63;;;15.10;99.90;;;;;;5026230;28;20026;-83
2021/08/15 05:45:09;;;;;;;10.20;6.88;;;15.20;99.90;;;;;;5024508;28;20033;-84
2021/08/15 05:47:35;;;;;;;11.25;7.78;;;15.40;99.90;;;;;;4998020;28;20030;-82
2021/08/15 05:50:01;;;;;;;9.80;6.45;;;15.60;99.90;;;;;;4991392;28;20075;-83
2021/08/15 05:52:27;;;;;;;8.35;5.90;;;15.90;99.90;;;;;;5013114;28;20084;-82
2021/08/15 05:54:53;;;;;;;8.73;5.93;;;16.20;99.90;;;;;;4981581;28;20496;-84
2021/08/15 05:57:19;;;;;;;8.90;6.10;;;16.40;99.90;;;;;;4998457;28;20045;-84
2021/08/15 05:59:44;;;;;;;9.15;5.82;;;16.70;99.90;;;;;;5006842;28;20037;-83
2021/08/15 06:02:10;;;;;;;8.05;5.85;;;17.00;99.90;;;;;;5016140;28;20094;-85
2021/08/15 06:04:36;;;;;;;7.10;5.60;;;17.30;99.90;;;;;;5008946;28;20067;-83
2021/08/15 06:07:02;;;;;;;11.05;6.38;;;17.50;99.90;;;;;;4999278;28;20032;-83
2021/08/15 06:09:27;;;;;;;9.00;5.60;;;17.80;99.90;;;;;;5017823;28;20083;-84
2021/08/15 06:11:53;;;;;;;7.80;5.13;;;18.10;99.90;;;;;;4998175;28;20551;-83
2021/08/15 06:14:19;;;;;;;6.65;4.80;;;18.40;99.90;;;;;;5028086;28;20063;-84
2021/08/15 06:16:45;;;;;;;7.45;4.90;;;18.60;99.90;;;;;;5018109;28;20118;-85
2021/08/15 06:19:12;;;;;;;8.48;4.63;;;18.90;99.90;;;;;;5011861;28;20049;-84
2021/08/15 06:21:37;;;;;;;7.43;4.97;;;19.20;99.90;;;;;;5020627;28;20102;-85
2021/08/15 06:24:04;;;;;;;8.18;4.65;;;19.40;99.90;;;;;;5001302;28;20476;-85
2021/08/15 06:26:30;;;;;;;5.72;4.70;;;19.70;99.90;;;;;;5001067;28;20091;-84
2021/08/15 06:28:56;;;;;;;5.90;3.88;;;19.90;99.90;;;;;;5037398;28;20043;-85
2021/08/15 06:31:22;;;;;;;5.28;4.22;;;20.10;99.90;;;;;;5033407;28;20021;-83
2021/08/15 06:33:49;;;;;;;5.80;4.18;;;20.30;99.90;;;;;;5004972;28;20391;-84
2021/08/15 06:36:14;;;;;;;6.15;4.25;;;20.50;99.90;;;;;;5005851;28;20049;-83
2021/08/15 06:38:40;;;;;;;6.10;4.10;;;20.70;99.90;;;;;;5027848;28;20142;-83
2021/08/15 06:41:08;;;;;;;5.72;4.03;;;20.90;99.90;;;;;;5037907;28;20044;-83
2021/08/15 06:43:33;;;;;;;7.03;5.03;;;21.10;99.90;;;;;;5033463;28;20082;-84
2021/08/15 06:45:59;;;;;;;7.68;5.55;;;21.30;99.90;;;;;;5003124;28;20096;-84
2021/08/15 06:48:25;;;;;;;6.55;4.88;;;21.00;99.90;;;;;;5000292;28;20029;-83
2021/08/15 06:50:54;;;;;;;8.30;5.32;;;20.90;99.90;;;;;;4999905;28;20476;-84
2021/08/15 06:53:21;;;;;;;5.97;4.65;;;20.90;99.90;;;;;;5026489;28;20793;-85
2021/08/15 06:55:48;;;;;;;6.18;4.95;;;20.90;99.90;;;;;;5015377;28;20033;-83
2021/08/15 06:58:13;;;;;;;6.38;4.60;;;21.20;99.90;;;;;;5017845;28;20042;-83
2021/08/15 07:00:39;;;;;;;7.80;4.40;;;21.00;99.90;;;;;;5017117;28;20038;-83
2021/08/15 07:03:07;;;;;;;8.05;4.88;;;21.10;99.90;;;;;;5038038;28;20396;-84
2021/08/15 07:05:33;;;;;;;6.28;4.60;;;21.50;99.90;;;;;;5019765;28;20103;-86
2021/08/15 07:07:58;;;;;;;8.88;4.30;;;21.80;99.90;;;;;;4989192;28;20456;-85
2021/08/15 07:10:24;;;;;;;6.38;4.82;;;22.20;99.90;;;;;;5003164;28;20029;-85
2021/08/15 07:12:53;;;;;;;8.35;4.97;;;22.40;99.90;;;;;;5037591;28;20422;-87
2021/08/15 07:15:20;;;;;;;6.75;4.65;;;22.40;99.90;;;;;;5038631;28;20087;-84
2021/08/15 07:17:46;;;;;;;6.45;4.65;;;22.70;99.90;;;;;;5031776;28;20088;-84
2021/08/15 07:20:13;;;;;;;6.07;4.88;;;22.80;99.90;;;;;;5030069;28;20589;-83
2021/08/15 07:22:39;;;;;;;5.18;4.55;;;23.10;99.90;;;;;;5020979;28;20394;-85
2021/08/15 07:25:05;;;;;;;5.90;4.70;;;23.50;99.90;;;;;;5020243;28;20128;-84
2021/08/15 07:27:33;;;;;;;7.50;4.30;;;23.80;99.90;;;;;;5001445;28;20029;-83
2021/08/15 07:29:59;;;;;;;6.28;4.63;;;23.60;99.90;;;;;;5007723;28;20017;-84
2021/08/15 07:32:24;;;;;;;7.00;4.97;;;23.70;99.90;;;;;;5046918;28;20036;-86
2021/08/15 07:34:50;;;;;;;6.53;4.55;;;23.80;99.90;;;;;;5021702;28;20534;-84
2021/08/15 07:37:16;;;;;;;6.10;4.05;;;24.00;99.90;;;;;;5001539;28;20513;-84
2021/08/15 07:39:43;;;;;;;6.63;4.72;;;24.30;99.60;;;;;;5019718;28;20446;-83
2021/08/15 07:42:08;;;;;;;8.25;4.45;;;24.40;97.70;;;;;;5044048;28;20029;-84
2021/08/15 07:44:34;;;;;;;5.75;4.13;;;24.40;99.90;;;;;;5053003;28;20498;-84
2021/08/15 07:47:00;;;;;;;4.40;3.78;;;24.60;98.40;;;;;;5010253;28;20040;-84
2021/08/15 07:49:25;;;;;;;6.95;5.40;;;24.90;99.90;;;;;;4999248;28;20577;-83
2021/08/15 07:51:51;;;;;;;6.38;4.63;;;25.00;95.60;;;;;;5018443;28;20495;-87
2021/08/15 07:54:17;;;;;;;6.57;3.97;;;24.80;96.40;;;;;;4983809;28;20048;-87
2021/08/15 07:56:43;;;;;;;5.35;4.07;;;24.80;96.60;;;;;;5012250;28;20032;-87
2021/08/15 07:59:10;;;;;;;6.43;4.30;;;24.90;96.50;;;;;;5004653;28;20102;-88
2021/08/15 08:01:36;;;;;;;7.20;4.30;;;25.00;97.30;;;;;;5015833;28;20040;-86
2021/08/15 08:04:02;;;;;;;9.82;5.22;;;25.10;97.30;;;;;;5028047;28;20033;-87
2021/08/15 08:06:28;;;;;;;5.25;4.25;;;25.00;95.30;;;;;;5031443;28;20083;-86
2021/08/15 08:08:54;;;;;;;6.03;4.70;;;25.10;95.30;;;;;;5021656;28;20402;-87
2021/08/15 08:11:20;;;;;;;6.28;4.78;;;24.80;94.80;;;;;;5019083;28;20060;-87
2021/08/15 08:13:47;;;;;;;5.53;3.85;;;24.60;95.30;;;;;;5017003;28;20546;-88
2021/08/15 08:16:14;;;;;;;7.55;4.45;;;24.70;95.60;;;;;;5030198;28;20400;-86
2021/08/15 08:18:40;;;;;;;8.30;4.53;;;24.80;95.80;;;;;;5021109;28;20502;-88
2021/08/15 08:21:07;;;;;;;7.35;3.97;;;24.90;96.10;;;;;;5030305;28;20124;-86
2021/08/15 08:23:34;;;;;;;6.38;4.10;;;25.00;96.20;;;;;;5011395;28;20521;-85
2021/08/15 08:26:00;;;;;;;5.03;4.05;;;25.10;95.30;;;;;;5020551;28;20079;-87
2021/08/15 08:28:25;;;;;;;4.40;3.53;;;25.10;95.40;;;;;;5029878;28;20057;-87
2021/08/15 08:30:51;;;;;;;7.03;4.30;;;25.20;94.10;;;;;;5036959;28;20035;-85
2021/08/15 08:33:17;;;;;;;4.05;3.40;;;25.20;93.50;;;;;;5041494;28;20071;-86
2021/08/15 08:35:43;;;;;;;4.85;3.50;;;25.30;96.50;;;;;;5045594;28;20036;-86
2021/08/15 08:38:09;;;;;;;5.82;3.83;;;25.60;96.10;;;;;;5013359;28;20087;-84
2021/08/15 08:40:34;;;;;;;5.65;4.25;;;25.80;95.30;;;;;;4973113;28;20667;-86
2021/08/15 08:43:00;;;;;;;4.70;3.60;;;26.00;93.30;;;;;;4990485;28;20761;-85
2021/08/15 08:45:28;;;;;;;4.07;3.67;;;26.10;94.50;;;;;;5006749;28;20068;-86
2021/08/15 08:47:55;;;;;;;7.38;3.95;;;26.20;93.70;;;;;;4999392;28;20033;-87
2021/08/15 08:50:22;;;;;;;4.82;3.70;;;26.30;93.40;;;;;;5008287;28;20123;-87
2021/08/15 08:52:48;;;;;;;4.32;3.38;;;26.30;91.60;;;;;;4998869;28;20084;-86
2021/08/15 08:55:16;;;;;;;4.35;3.90;;;26.40;92.30;;;;;;5010010;28;20029;-86
2021/08/15 08:57:42;;;;;;;8.13;4.18;;;26.30;92.30;;;;;;5031557;28;20029;-85
2021/08/15 09:00:08;;;;;;;4.07;3.60;;;26.30;90.90;;;;;;5043489;28;20039;-85
2021/08/15 09:02:36;;;;;;;4.90;3.55;;;26.30;93.10;;;;;;5016746;28;20164;-88
2021/08/15 09:05:03;;;;;;;4.97;3.67;;;26.40;92.80;;;;;;5014555;28;20061;-85
2021/08/15 09:07:34;;;;;;;6.90;3.95;;;26.40;92.40;;;;;;5008378;28;20484;-84
2021/08/15 09:10:01;;;;;;;4.35;3.72;;;26.50;91.30;;;;;;4997214;28;20028;-87
2021/08/15 09:12:39;;;;;;;5.40;3.92;;;26.50;91.40;;;;;;5003879;28;20457;-86
2021/08/15 09:15:27;;;;;;;3.80;3.40;;;26.50;91.50;;;;;;5028389;28;20026;-85
2021/08/15 09:17:54;;;;;;;4.20;3.42;;;26.60;89.30;;;;;;5032020;28;20147;-87
2021/08/15 09:20:35;;;;;;;5.60;3.92;;;26.60;91.40;;;;;;5003437;28;20617;-87
2021/08/15 09:23:20;;;;;;;5.35;3.60;;;26.60;92.10;;;;;;5003480;28;20391;-87
2021/08/15 09:25:46;;;;;;;;;;;26.60;92.90;;;;;;5014065;28;20025;-88
2021/08/15 09:28:13;;;;;;;;;;;26.70;92.60;;;;;;5033955;28;19920;-86
2021/08/15 09:30:39;;;;;;;5.55;3.70;;;26.80;91.50;;;;;;5032066;28;20286;-86
2021/08/15 09:33:07;;;;;;;4.82;3.83;;;26.70;91.90;;;;;;5011122;28;20124;-86
2021/08/15 09:35:35;;;;;;;4.88;3.70;;;26.80;93.40;;;;;;5010500;28;20041;-85
2021/08/15 09:38:03;;;;;;;4.45;3.95;;;26.90;92.10;;;;;;5024130;28;20687;-85
2021/08/15 09:40:35;;;;;;;4.97;3.55;;;26.90;91.30;;;;;;5010337;28;20029;-86
2021/08/15 09:43:03;;;;;;;3.80;3.35;;;26.90;91.40;;;;;;5008411;28;20039;-87
2021/08/15 09:45:37;;;;;;;9.05;4.13;;;26.80;92.70;;;;;;5019762;28;20792;-85
2021/08/15 09:48:24;;;;;;;4.95;3.80;;;26.70;90.20;;;;;;5026973;28;20112;-86
2021/08/15 09:51:12;;;;;;;7.43;3.42;;;26.70;93.00;;;;;;5019367;28;20033;-85
2021/08/15 09:53:41;;;;;;;4.28;3.35;;;26.70;93.20;;;;;;5009852;28;20030;-85
2021/08/15 09:56:08;;;;;;;4.22;3.70;;;26.80;92.30;;;;;;5023959;28;20033;-87
2021/08/15 09:58:34;;;;;;;4.70;3.72;;;26.70;91.30;;;;;;5025485;28;20108;-87
2021/08/15 10:01:04;;;;;;;4.80;3.25;;;26.80;93.50;;;;;;4997645;28;20036;-86
2021/08/15 10:03:29;;;;;;;5.60;3.60;;;26.80;92.80;;;;;;4999350;28;20060;-85
2021/08/15 10:05:57;;;;;;;4.68;3.75;;;26.80;91.30;;;;;;5015581;28;20026;-86
2021/08/15 10:08:23;;;;;;;3.88;3.47;;;26.80;91.70;;;;;;5011914;28;20057;-86
2021/08/15 10:10:49;;;;;;;3.70;3.33;;;26.80;92.70;;;;;;5012349;28;20554;-86
2021/08/15 10:13:17;;;;;;;6.82;4.20;;;26.70;92.60;;;;;;5028191;28;20052;-86
2021/08/15 10:15:51;;;;;;;4.30;3.80;;;26.80;91.90;;;;;;5014142;28;20444;-86
2021/08/15 10:18:21;;;;;;;4.25;3.85;;;26.80;92.00;;;;;;5032089;28;20029;-85
2021/08/15 10:20:48;;;;;;;5.72;3.70;;;26.80;91.50;;;;;;5016709;28;20037;-86
2021/08/15 10:23:14;;;;;;;6.60;3.28;;;26.90;92.70;;;;;;5011030;28;20029;-85
2021/08/15 10:25:44;;;;;;;5.43;3.55;;;27.00;92.30;;;;;;5011438;28;20535;-85
2021/08/15 10:28:29;;;;;;;3.80;3.30;;;27.00;92.60;;;;;;5011265;28;20040;-86
2021/08/15 10:30:58;;;;;;;4.53;3.58;;;27.10;90.60;;;;;;5036683;28;20412;-85
2021/08/15 10:33:29;;;;;;;3.53;3.17;;;27.10;90.70;;;;;;5014417;28;20087;-86
2021/08/15 10:36:21;;;;;;;4.63;3.80;;;27.20;91.30;;;;;;5012710;28;20574;-86
2021/08/15 10:38:49;;;;;;;4.85;3.47;;;27.30;94.00;;;;;;5022121;28;20088;-85
2021/08/15 10:41:51;;;;;;;4.45;3.35;;;27.40;92.40;;;;;;5009255;28;20064;-87
2021/08/15 10:44:18;;;;;;;6.70;3.70;;;27.50;92.40;;;;;;5012402;28;20029;-84
2021/08/15 10:47:13;;;;;;;3.70;3.40;;;27.60;90.80;;;;;;5023165;28;20036;-85
2021/08/15 10:49:53;;;;;;;3.63;3.15;;;27.70;91.40;;;;;;5021747;28;20029;-86
2021/08/15 10:52:30;;;;;;;5.95;3.65;;;27.70;89.00;;;;;;5013173;28;20056;-85
2021/08/15 10:55:00;;;;;;;4.80;3.35;;;27.70;90.00;;;;;;4997954;28;20032;-85
2021/08/15 10:57:54;;;;;;;5.32;3.47;;;27.70;89.40;;;;;;5028012;28;20060;-85
2021/08/15 11:00:28;;;;;;;4.25;3.58;;;27.70;90.30;;;;;;5009712;28;20052;-85
2021/08/15 11:02:55;;;;;;;4.07;3.47;;;27.60;90.50;;;;;;5045185;28;20067;-85
2021/08/15 11:05:40;;;;;;;4.40;3.50;;;27.60;89.20;;;;;;5013096;28;20044;-85
2021/08/15 11:08:31;;;;;;;3.95;3.50;;;27.70;91.90;;;;;;4996231;28;20030;-84
2021/08/15 11:11:09;;;;;;;5.47;3.50;;;27.60;90.50;;;;;;5018770;28;20089;-85
2021/08/15 11:13:37;;;;;;;4.88;3.53;;;27.70;90.50;;;;;;5004610;28;20060;-84
2021/08/15 11:16:29;;;;;;;5.40;3.05;;;27.80;86.50;;;;;;5019325;28;20059;-85
2021/08/15 11:19:12;;;;;;;4.22;3.17;;;27.70;88.60;;;;;;4994398;28;20111;-85
2021/08/15 11:22:03;;;;;;;4.53;3.20;;;27.70;85.20;;;;;;5035619;28;20492;-86
2021/08/15 11:24:49;;;;;;;4.15;3.13;;;27.60;86.10;;;;;;5021645;28;20443;-85
2021/08/15 11:27:22;;;;;;;4.63;3.50;;;27.50;88.40;;;;;;4992994;28;20384;-85
2021/08/15 11:29:49;;;;;;;7.55;4.35;;;27.40;89.20;;;;;;5004405;28;20068;-85
2021/08/15 11:32:23;;;;;;;4.53;3.92;;;27.30;89.40;;;;;;5030804;28;20090;-85
2021/08/15 11:34:57;;;;;;;4.13;3.45;;;27.20;90.00;;;;;;5026810;28;20434;-85
2021/08/15 11:37:29;;;;;;;6.22;3.65;;;27.30;90.60;;;;;;4998045;28;20036;-85
2021/08/15 11:39:55;;;;;;;3.95;3.50;;;27.40;88.70;;;;;;5010986;28;20069;-86
2021/08/15 11:42:26;;;;;;;4.82;3.05;;;27.40;91.40;;;;;;4997614;28;20133;-87
2021/08/15 11:44:58;;;;;;;6.03;3.90;;;27.50;88.80;;;;;;5016106;28;20078;-86
2021/08/15 11:47:44;;;;;;;5.45;4.40;;;27.60;90.10;;;;;;5027231;28;20040;-84
2021/08/15 11:50:13;;;;;;;5.30;3.30;;;27.60;88.70;;;;;;5045059;28;20052;-85
2021/08/15 11:52:39;;;;;;;6.95;3.42;;;27.60;89.00;;;;;;5040818;28;20071;-84
2021/08/15 11:55:10;;;;;;;3.88;3.47;;;27.60;90.70;;;;;;5009166;28;20504;-85
2021/08/15 11:57:49;;;;;;;4.57;3.72;;;27.70;91.00;;;;;;4992139;28;20022;-86
2021/08/15 12:00:16;;;;;;;4.95;3.35;;;27.70;83.00;;;;;;5012190;28;21042;-85
2021/08/15 12:03:19;;;;;;;7.30;4.35;;;27.90;86.60;;;;;;5035264;28;20021;-84
2021/08/15 12:05:57;;;;;;;4.75;3.70;;;28.00;86.60;;;;;;5016751;28;20215;-86
2021/08/15 12:08:35;;;;;;;3.88;3.30;;;28.10;87.00;;;;;;5007738;28;20025;-86
2021/08/15 12:11:01;;;;;;;7.95;3.92;;;28.30;84.70;;;;;;5037803;28;20032;-84
2021/08/15 12:13:37;;;;;;;3.88;3.40;;;28.30;75.00;;;;;;5026069;28;20029;-85
2021/08/15 12:16:03;;;;;;;4.30;3.60;;;28.30;83.40;;;;;;5029358;28;20060;-85
2021/08/15 12:18:37;;;;;;;6.32;3.35;;;28.40;82.30;;;;;;5021112;28;20060;-85
2021/08/15 12:21:15;;;;;;;4.00;3.30;;;28.50;83.10;;;;;;5028703;28;20029;-85
2021/08/15 12:24:02;;;;;;;3.28;2.90;;;28.40;73.80;;;;;;5006198;28;20120;-86
2021/08/15 12:26:34;;;;;;;3.50;2.97;;;28.40;78.00;;;;;;5024940;28;20032;-85
2021/08/15 12:29:03;;;;;;;4.32;3.40;;;28.50;79.00;;;;;;5014573;28;20071;-85
2021/08/15 12:31:31;;;;;;;4.03;3.00;;;28.50;78.30;;;;;;5010153;28;20552;-85
2021/08/15 12:34:16;;;;;;;6.07;3.15;;;28.50;76.80;;;;;;5015305;28;20071;-85
2021/08/15 12:36:57;;;;;;;4.40;3.03;;;28.50;77.40;;;;;;5025474;28;20033;-85
2021/08/15 12:39:32;;;;;;;3.92;3.00;;;28.70;76.40;;;;;;5031790;28;20087;-85
2021/08/15 12:42:03;;;;;;;4.75;2.83;;;28.70;78.70;;;;;;5007042;28;20123;-85
2021/08/15 12:44:49;;;;;;;5.05;2.92;;;28.80;76.70;;;;;;5026293;28;20040;-85
2021/08/15 12:47:22;;;;;;;3.60;3.10;;;28.90;76.20;;;;;;5008958;28;20496;-85
2021/08/15 12:49:48;;;;;;;3.95;2.90;;;28.90;76.20;;;;;;5036331;28;20072;-85
2021/08/15 12:52:18;;;;;;;4.18;3.38;;;29.10;74.90;;;;;;5010333;28;20056;-86
2021/08/15 12:55:11;;;;;;;3.45;2.80;;;29.30;74.30;;;;;;5052493;28;20025;-85